sensor_id;sensor_type;location;lat;lon;timestamp;pressure;altitude;pressure_sealevel;temperature;humidity
25869;BME280;13688;53.154;18.136;2023-11-21T00:04:32;100330.17;;;-0.08;100.00
25869;BME280;13688;53.154;18.136;2023-11-21T00:09:55;100345.90;;;-0.05;100.00
25869;BME280;13688;53.154;18.136;2023-11-21T00:15:21;100351.19;;;-0.05;100.00
25869;BME280;13688;53.154;18.136;2023-11-21T00:20:43;100367.17;;;-0.08;100.00
25869;BME280;13688;53.154;18.136;2023-11-21T00:26:07;100365.39;;;-0.07;100.00
25869;BME280;13688;53.154;18.136;2023-11-21T00:31:30;100370.55;;;-0.04;100.00
25869;BME280;13688;53.154;18.136;2023-11-21T00:36:53;100364.69;;;-0.12;100.00
25869;BME280;13688;53.154;18.136;2023-11-21T00:42:15;100370.27;;;-0.20;100.00
25869;BME280;13688;53.154;18.136;2023-11-21T00:47:38;100372.91;;;-0.20;100.00
25869;BME280;13688;53.154;18.136;2023-11-21T00:53:00;100385.46;;;-0.25;100.00
25869;BME280;13688;53.154;18.136;2023-11-21T00:58:25;100402.30;;;-0.27;100.00
25869;BME280;13688;53.154;18.136;2023-11-21T01:03:48;100402.97;;;-0.22;100.00
25869;BME280;13688;53.154;18.136;2023-11-21T01:09:11;100400.52;;;-0.27;100.00
25869;BME280;13688;53.154;18.136;2023-11-21T01:14:34;100405.89;;;-0.30;100.00
25869;BME280;13688;53.154;18.136;2023-11-21T01:19:56;100423.53;;;-0.31;100.00
25869;BME280;13688;53.154;18.136;2023-11-21T01:25:23;100421.02;;;-0.34;100.00
25869;BME280;13688;53.154;18.136;2023-11-21T01:30:46;100424.52;;;-0.33;100.00
25869;BME280;13688;53.154;18.136;2023-11-21T01:36:09;100435.94;;;-0.33;100.00
25869;BME280;13688;53.154;18.136;2023-11-21T01:41:33;100441.92;;;-0.27;100.00
25869;BME280;13688;53.154;18.136;2023-11-21T01:46:56;100434.09;;;-0.31;100.00
25869;BME280;13688;53.154;18.136;2023-11-21T01:52:19;100441.44;;;-0.39;100.00
25869;BME280;13688;53.154;18.136;2023-11-21T01:57:42;100445.86;;;-0.39;100.00
25869;BME280;13688;53.154;18.136;2023-11-21T02:03:06;100446.05;;;-0.44;100.00
25869;BME280;13688;53.154;18.136;2023-11-21T02:08:28;100442.76;;;-0.50;100.00
25869;BME280;13688;53.154;18.136;2023-11-21T02:13:53;100446.45;;;-0.54;100.00
25869;BME280;13688;53.154;18.136;2023-11-21T02:19:19;100447.24;;;-0.52;100.00
25869;BME280;13688;53.154;18.136;2023-11-21T02:24:42;100453.56;;;-0.56;100.00
25869;BME280;13688;53.154;18.136;2023-11-21T02:30:04;100462.50;;;-0.61;100.00
25869;BME280;13688;53.154;18.136;2023-11-21T02:35:28;100464.61;;;-0.70;100.00
25869;BME280;13688;53.154;18.136;2023-11-21T02:40:52;100464.78;;;-0.75;100.00
25869;BME280;13688;53.154;18.136;2023-11-21T02:46:15;100476.09;;;-0.71;100.00
25869;BME280;13688;53.154;18.136;2023-11-21T02:51:38;100465.70;;;-0.76;100.00
25869;BME280;13688;53.154;18.136;2023-11-21T02:57:01;100486.22;;;-0.84;100.00
25869;BME280;13688;53.154;18.136;2023-11-21T03:02:23;100481.86;;;-0.85;100.00
25869;BME280;13688;53.154;18.136;2023-11-21T03:07:50;100488.92;;;-0.85;100.00
25869;BME280;13688;53.154;18.136;2023-11-21T03:13:12;100492.36;;;-0.83;100.00
25869;BME280;13688;53.154;18.136;2023-11-21T03:18:35;100505.45;;;-0.80;100.00
25869;BME280;13688;53.154;18.136;2023-11-21T03:23:57;100505.50;;;-0.82;100.00
25869;BME280;13688;53.154;18.136;2023-11-21T03:29:21;100511.04;;;-0.90;100.00
25869;BME280;13688;53.154;18.136;2023-11-21T03:34:54;100518.09;;;-0.90;100.00
25869;BME280;13688;53.154;18.136;2023-11-21T03:40:17;100518.03;;;-0.89;100.00
25869;BME280;13688;53.154;18.136;2023-11-21T03:45:41;100521.70;;;-0.93;100.00
25869;BME280;13688;53.154;18.136;2023-11-21T03:51:03;100516.38;;;-0.91;100.00
25869;BME280;13688;53.154;18.136;2023-11-21T03:56:26;100512.98;;;-0.95;100.00
25869;BME280;13688;53.154;18.136;2023-11-21T04:01:48;100508.88;;;-1.03;100.00
25869;BME280;13688;53.154;18.136;2023-11-21T04:07:12;100519.43;;;-1.03;100.00
25869;BME280;13688;53.154;18.136;2023-11-21T04:12:35;100532.81;;;-1.09;100.00
25869;BME280;13688;53.154;18.136;2023-11-21T04:17:58;100534.76;;;-1.14;100.00
25869;BME280;13688;53.154;18.136;2023-11-21T04:23:20;100526.17;;;-1.21;100.00
25869;BME280;13688;53.154;18.136;2023-11-21T04:28:43;100549.11;;;-1.23;100.00
25869;BME280;13688;53.154;18.136;2023-11-21T04:34:06;100550.88;;;-1.24;100.00
25869;BME280;13688;53.154;18.136;2023-11-21T04:39:29;100552.55;;;-1.21;100.00
25869;BME280;13688;53.154;18.136;2023-11-21T04:44:51;100558.87;;;-1.27;100.00
25869;BME280;13688;53.154;18.136;2023-11-21T04:50:15;100570.16;;;-1.22;100.00
25869;BME280;13688;53.154;18.136;2023-11-21T04:55:38;100571.20;;;-1.27;100.00
25869;BME280;13688;53.154;18.136;2023-11-21T05:01:00;100579.27;;;-1.32;100.00
25869;BME280;13688;53.154;18.136;2023-11-21T05:06:25;100595.95;;;-1.31;100.00
25869;BME280;13688;53.154;18.136;2023-11-21T05:11:47;100603.11;;;-1.35;100.00
25869;BME280;13688;53.154;18.136;2023-11-21T05:17:10;100612.64;;;-1.31;100.00
25869;BME280;13688;53.154;18.136;2023-11-21T05:22:32;100609.14;;;-1.31;100.00
25869;BME280;13688;53.154;18.136;2023-11-21T05:27:55;100609.14;;;-1.31;100.00
25869;BME280;13688;53.154;18.136;2023-11-21T05:33:17;100607.48;;;-1.34;100.00
25869;BME280;13688;53.154;18.136;2023-11-21T05:38:41;100625.02;;;-1.33;100.00
25869;BME280;13688;53.154;18.136;2023-11-21T05:44:03;100631.05;;;-1.29;100.00
25869;BME280;13688;53.154;18.136;2023-11-21T05:49:26;100643.55;;;-1.36;100.00
25869;BME280;13688;53.154;18.136;2023-11-21T05:54:48;100647.04;;;-1.34;100.00
25869;BME280;13688;53.154;18.136;2023-11-21T06:00:15;100653.93;;;-1.30;100.00
25869;BME280;13688;53.154;18.136;2023-11-21T06:05:38;100660.23;;;-1.34;100.00
25869;BME280;13688;53.154;18.136;2023-11-21T06:11:01;100670.67;;;-1.31;100.00
25869;BME280;13688;53.154;18.136;2023-11-21T06:16:23;100681.39;;;-1.37;100.00
25869;BME280;13688;53.154;18.136;2023-11-21T06:21:46;100694.58;;;-1.37;100.00
25869;BME280;13688;53.154;18.136;2023-11-21T06:27:10;100707.00;;;-1.40;100.00
25869;BME280;13688;53.154;18.136;2023-11-21T06:32:38;100715.01;;;-1.43;100.00
25869;BME280;13688;53.154;18.136;2023-11-21T06:38:01;100731.59;;;-1.40;100.00
25869;BME280;13688;53.154;18.136;2023-11-21T06:43:23;100736.77;;;-1.37;100.00
25869;BME280;13688;53.154;18.136;2023-11-21T06:48:48;100743.77;;;-1.36;100.00
25869;BME280;13688;53.154;18.136;2023-11-21T06:54:11;100744.83;;;-1.41;100.00
25869;BME280;13688;53.154;18.136;2023-11-21T06:59:37;100758.02;;;-1.41;100.00
25869;BME280;13688;53.154;18.136;2023-11-21T07:05:03;100765.78;;;-1.37;100.00
25869;BME280;13688;53.154;18.136;2023-11-21T07:10:27;100770.09;;;-1.33;100.00
25869;BME280;13688;53.154;18.136;2023-11-21T07:15:51;100772.67;;;-1.31;100.00
25869;BME280;13688;53.154;18.136;2023-11-21T07:21:15;100777.09;;;-1.32;100.00
25869;BME280;13688;53.154;18.136;2023-11-21T07:26:38;100778.77;;;-1.29;100.00
25869;BME280;13688;53.154;18.136;2023-11-21T07:32:00;100792.87;;;-1.30;100.00
25869;BME280;13688;53.154;18.136;2023-11-21T07:37:24;100793.73;;;-1.30;100.00
25869;BME280;13688;53.154;18.136;2023-11-21T07:42:47;100798.84;;;-1.24;100.00
25869;BME280;13688;53.154;18.136;2023-11-21T07:48:13;100814.62;;;-1.22;100.00
25869;BME280;13688;53.154;18.136;2023-11-21T07:53:51;100801.78;;;-1.03;100.00
25869;BME280;13688;53.154;18.136;2023-11-21T07:59:15;100803.50;;;-1.02;100.00
25869;BME280;13688;53.154;18.136;2023-11-21T08:04:41;100813.65;;;-0.89;100.00
25869;BME280;13688;53.154;18.136;2023-11-21T08:10:04;100825.07;;;-0.88;100.00
25869;BME280;13688;53.154;18.136;2023-11-21T08:15:27;100824.14;;;-0.85;100.00
25869;BME280;13688;53.154;18.136;2023-11-21T08:20:52;100816.34;;;-0.90;100.00
25869;BME280;13688;53.154;18.136;2023-11-21T08:26:17;100822.68;;;-0.96;100.00
25869;BME280;13688;53.154;18.136;2023-11-21T08:31:40;100826.18;;;-0.95;100.00
25869;BME280;13688;53.154;18.136;2023-11-21T08:37:06;100822.48;;;-0.90;100.00
25869;BME280;13688;53.154;18.136;2023-11-21T08:42:31;100824.73;;;-0.76;100.00
25869;BME280;13688;53.154;18.136;2023-11-21T08:47:56;100823.67;;;-0.70;100.00
25869;BME280;13688;53.154;18.136;2023-11-21T08:53:21;100825.33;;;-0.66;100.00
25869;BME280;13688;53.154;18.136;2023-11-21T08:58:44;100827.86;;;-0.63;100.00
25869;BME280;13688;53.154;18.136;2023-11-21T09:04:07;100829.42;;;-0.56;100.00
25869;BME280;13688;53.154;18.136;2023-11-21T09:09:30;100831.23;;;-0.30;100.00
25869;BME280;13688;53.154;18.136;2023-11-21T09:14:54;100839.09;;;-0.01;100.00
25869;BME280;13688;53.154;18.136;2023-11-21T09:20:25;100842.29;;;0.11;100.00
25869;BME280;13688;53.154;18.136;2023-11-21T09:25:48;100842.88;;;0.19;100.00
25869;BME280;13688;53.154;18.136;2023-11-21T09:31:12;100850.35;;;0.06;100.00
25869;BME280;13688;53.154;18.136;2023-11-21T09:36:37;100856.91;;;-0.06;100.00
25869;BME280;13688;53.154;18.136;2023-11-21T09:42:23;100859.78;;;-0.13;100.00
25869;BME280;13688;53.154;18.136;2023-11-21T09:47:59;100871.43;;;-0.19;100.00
25869;BME280;13688;53.154;18.136;2023-11-21T09:53:23;100872.81;;;-0.07;100.00
25869;BME280;13688;53.154;18.136;2023-11-21T09:58:49;100877.89;;;-0.01;100.00
25869;BME280;13688;53.154;18.136;2023-11-21T10:04:15;100871.73;;;-0.02;100.00
25869;BME280;13688;53.154;18.136;2023-11-21T10:09:38;100869.38;;;-0.11;100.00
25869;BME280;13688;53.154;18.136;2023-11-21T10:15:02;100872.94;;;-0.12;100.00
25869;BME280;13688;53.154;18.136;2023-11-21T10:20:27;100870.59;;;-0.21;100.00
25869;BME280;13688;53.154;18.136;2023-11-21T10:25:50;100881.16;;;-0.21;100.00
25869;BME280;13688;53.154;18.136;2023-11-21T10:31:14;100879.64;;;-0.28;100.00
25869;BME280;13688;53.154;18.136;2023-11-21T10:36:37;100892.80;;;-0.26;100.00
25869;BME280;13688;53.154;18.136;2023-11-21T10:42:01;100896.95;;;-0.19;100.00
25869;BME280;13688;53.154;18.136;2023-11-21T10:47:25;100904.00;;;-0.18;100.00
25869;BME280;13688;53.154;18.136;2023-11-21T10:52:48;100905.14;;;-0.27;100.00
25869;BME280;13688;53.154;18.136;2023-11-21T10:58:11;100906.48;;;-0.14;100.00
25869;BME280;13688;53.154;18.136;2023-11-21T11:03:35;100909.94;;;-0.12;100.00
25869;BME280;13688;53.154;18.136;2023-11-21T11:08:59;100903.90;;;-0.15;100.00
25869;BME280;13688;53.154;18.136;2023-11-21T11:14:25;100913.45;;;-0.11;100.00
25869;BME280;13688;53.154;18.136;2023-11-21T11:19:49;100917.88;;;-0.12;100.00
25869;BME280;13688;53.154;18.136;2023-11-21T11:31:46;100929.41;;;-0.14;100.00
25869;BME280;13688;53.154;18.136;2023-11-21T11:37:21;100945.31;;;-0.16;100.00
25869;BME280;13688;53.154;18.136;2023-11-21T11:42:56;100941.87;;;-0.19;100.00
25869;BME280;13688;53.154;18.136;2023-11-21T11:48:22;100960.16;;;-0.12;100.00
25869;BME280;13688;53.154;18.136;2023-11-21T11:53:47;100970.73;;;-0.12;100.00
25869;BME280;13688;53.154;18.136;2023-11-21T11:59:10;100977.80;;;-0.12;100.00
25869;BME280;13688;53.154;18.136;2023-11-21T12:04:33;100981.18;;;-0.07;100.00
25869;BME280;13688;53.154;18.136;2023-11-21T12:09:57;100982.31;;;-0.16;100.00
25869;BME280;13688;53.154;18.136;2023-11-21T12:15:22;100979.89;;;-0.23;100.00
25869;BME280;13688;53.154;18.136;2023-11-21T12:20:47;100981.72;;;-0.25;100.00
25869;BME280;13688;53.154;18.136;2023-11-21T12:26:10;100986.30;;;-0.32;100.00
25869;BME280;13688;53.154;18.136;2023-11-21T12:31:34;100990.61;;;-0.28;100.00
25869;BME280;13688;53.154;18.136;2023-11-21T12:36:57;100990.67;;;-0.31;100.00
25869;BME280;13688;53.154;18.136;2023-11-21T12:42:22;100983.81;;;-0.37;100.00
25869;BME280;13688;53.154;18.136;2023-11-21T12:47:46;100990.06;;;-0.41;100.00
25869;BME280;13688;53.154;18.136;2023-11-21T12:53:13;100996.22;;;-0.40;100.00
25869;BME280;13688;53.154;18.136;2023-11-21T12:58:40;100999.72;;;-0.40;100.00
25869;BME280;13688;53.154;18.136;2023-11-21T13:04:03;101008.35;;;-0.33;100.00
25869;BME280;13688;53.154;18.136;2023-11-21T13:09:28;101024.95;;;-0.28;100.00
25869;BME280;13688;53.154;18.136;2023-11-21T13:14:52;101024.09;;;-0.28;100.00
25869;BME280;13688;53.154;18.136;2023-11-21T13:20:18;101042.44;;;-0.24;100.00
25869;BME280;13688;53.154;18.136;2023-11-21T13:25:42;101057.38;;;-0.23;100.00
25869;BME280;13688;53.154;18.136;2023-11-21T13:31:07;101054.84;;;-0.26;100.00
25869;BME280;13688;53.154;18.136;2023-11-21T13:36:35;101063.63;;;-0.25;100.00
25869;BME280;13688;53.154;18.136;2023-11-21T13:41:58;101067.23;;;-0.28;100.00
25869;BME280;13688;53.154;18.136;2023-11-21T13:47:21;101075.31;;;-0.34;100.00
25869;BME280;13688;53.154;18.136;2023-11-21T13:52:46;101072.77;;;-0.37;100.00
25869;BME280;13688;53.154;18.136;2023-11-21T13:58:11;101087.81;;;-0.41;100.00
25869;BME280;13688;53.154;18.136;2023-11-21T14:03:46;101100.09;;;-0.38;100.00
25869;BME280;13688;53.154;18.136;2023-11-21T14:09:10;101112.92;;;-0.59;100.00
25869;BME280;13688;53.154;18.136;2023-11-21T14:14:39;101122.86;;;-0.68;100.00
25869;BME280;13688;53.154;18.136;2023-11-21T14:20:03;101125.85;;;-0.82;100.00
25869;BME280;13688;53.154;18.136;2023-11-21T14:25:27;101128.80;;;-0.94;100.00
25869;BME280;13688;53.154;18.136;2023-11-21T14:30:53;101124.52;;;-1.00;100.00
25869;BME280;13688;53.154;18.136;2023-11-21T14:36:17;101136.10;;;-1.05;100.00
25869;BME280;13688;53.154;18.136;2023-11-21T14:41:40;101150.08;;;-1.02;100.00
25869;BME280;13688;53.154;18.136;2023-11-21T14:47:03;101158.78;;;-0.98;100.00
25869;BME280;13688;53.154;18.136;2023-11-21T14:52:26;101166.74;;;-1.00;100.00
25869;BME280;13688;53.154;18.136;2023-11-21T14:57:51;101171.23;;;-1.03;100.00
25869;BME280;13688;53.154;18.136;2023-11-21T15:03:14;101162.54;;;-1.08;100.00
25869;BME280;13688;53.154;18.136;2023-11-21T15:08:48;101178.45;;;-1.11;100.00
25869;BME280;13688;53.154;18.136;2023-11-21T15:14:19;101180.27;;;-1.13;100.00
25869;BME280;13688;53.154;18.136;2023-11-21T15:19:44;101185.50;;;-1.12;100.00
25869;BME280;13688;53.154;18.136;2023-11-21T15:25:10;101194.41;;;-1.18;100.00
25869;BME280;13688;53.154;18.136;2023-11-21T15:30:33;101199.69;;;-1.18;100.00
25869;BME280;13688;53.154;18.136;2023-11-21T15:35:57;101198.86;;;-1.20;100.00
25869;BME280;13688;53.154;18.136;2023-11-21T15:41:20;101205.08;;;-1.22;100.00
25869;BME280;13688;53.154;18.136;2023-11-21T15:46:43;101210.43;;;-1.25;100.00
25869;BME280;13688;53.154;18.136;2023-11-21T15:52:06;101214.88;;;-1.29;100.00
25869;BME280;13688;53.154;18.136;2023-11-21T15:57:29;101227.28;;;-1.32;100.00
25869;BME280;13688;53.154;18.136;2023-11-21T16:02:52;101230.11;;;-1.41;100.00
25869;BME280;13688;53.154;18.136;2023-11-21T16:08:15;101249.55;;;-1.47;100.00
25869;BME280;13688;53.154;18.136;2023-11-21T16:13:39;101251.45;;;-1.55;100.00
25869;BME280;13688;53.154;18.136;2023-11-21T16:19:01;101258.67;;;-1.63;100.00
25869;BME280;13688;53.154;18.136;2023-11-21T16:24:25;101254.54;;;-1.78;100.00
25869;BME280;13688;53.154;18.136;2023-11-21T16:29:49;101271.48;;;-1.91;100.00
25869;BME280;13688;53.154;18.136;2023-11-21T16:35:13;101271.55;;;-1.96;100.00
25869;BME280;13688;53.154;18.136;2023-11-21T16:40:35;101283.02;;;-1.98;100.00
25869;BME280;13688;53.154;18.136;2023-11-21T16:45:58;101282.22;;;-2.02;100.00
25869;BME280;13688;53.154;18.136;2023-11-21T16:51:23;101278.74;;;-2.06;100.00
25869;BME280;13688;53.154;18.136;2023-11-21T16:56:47;101279.61;;;-2.05;100.00
25869;BME280;13688;53.154;18.136;2023-11-21T17:02:10;101291.95;;;-2.07;100.00
25869;BME280;13688;53.154;18.136;2023-11-21T17:07:33;101294.70;;;-2.15;100.00
25869;BME280;13688;53.154;18.136;2023-11-21T17:12:56;101307.06;;;-2.18;100.00
25869;BME280;13688;53.154;18.136;2023-11-21T17:18:19;101319.45;;;-2.25;100.00
25869;BME280;13688;53.154;18.136;2023-11-21T17:23:42;101314.30;;;-2.31;100.00
25869;BME280;13688;53.154;18.136;2023-11-21T17:29:05;101319.67;;;-2.39;100.00
25869;BME280;13688;53.154;18.136;2023-11-21T17:34:28;101325.10;;;-2.49;100.00
25869;BME280;13688;53.154;18.136;2023-11-21T17:39:50;101333.92;;;-2.53;100.00
25869;BME280;13688;53.154;18.136;2023-11-21T17:45:15;101355.93;;;-2.57;100.00
25869;BME280;13688;53.154;18.136;2023-11-21T17:50:37;101357.72;;;-2.60;100.00
25869;BME280;13688;53.154;18.136;2023-11-21T17:55:59;101367.38;;;-2.60;100.00
25869;BME280;13688;53.154;18.136;2023-11-21T18:01:24;101369.04;;;-2.54;100.00
25869;BME280;13688;53.154;18.136;2023-11-21T18:06:48;101385.68;;;-2.52;100.00
25869;BME280;13688;53.154;18.136;2023-11-21T18:12:12;101392.67;;;-2.48;100.00
25869;BME280;13688;53.154;18.136;2023-11-21T18:17:35;101405.88;;;-2.53;100.00
25869;BME280;13688;53.154;18.136;2023-11-21T18:22:58;101408.61;;;-2.59;100.00
25869;BME280;13688;53.154;18.136;2023-11-21T18:28:23;101427.06;;;-2.61;100.00
25869;BME280;13688;53.154;18.136;2023-11-21T18:33:47;101434.95;;;-2.62;100.00
25869;BME280;13688;53.154;18.136;2023-11-21T18:39:09;101446.39;;;-2.65;100.00
25869;BME280;13688;53.154;18.136;2023-11-21T18:44:32;101453.48;;;-2.71;100.00
25869;BME280;13688;53.154;18.136;2023-11-21T18:50:00;101469.27;;;-2.71;100.00
25869;BME280;13688;53.154;18.136;2023-11-21T18:55:25;101477.19;;;-2.73;100.00
25869;BME280;13688;53.154;18.136;2023-11-21T19:00:48;101494.70;;;-2.70;100.00
25869;BME280;13688;53.154;18.136;2023-11-21T19:06:11;101509.62;;;-2.71;100.00
25869;BME280;13688;53.154;18.136;2023-11-21T19:11:35;101509.62;;;-2.71;100.00
25869;BME280;13688;53.154;18.136;2023-11-21T19:16:58;101516.64;;;-2.68;100.00
25869;BME280;13688;53.154;18.136;2023-11-21T19:22:24;101525.39;;;-2.66;100.00
25869;BME280;13688;53.154;18.136;2023-11-21T19:27:47;101535.87;;;-2.60;100.00
25869;BME280;13688;53.154;18.136;2023-11-21T19:33:10;101541.95;;;-2.56;100.00
25869;BME280;13688;53.154;18.136;2023-11-21T19:38:35;101558.57;;;-2.50;100.00
25869;BME280;13688;53.154;18.136;2023-11-21T19:43:57;101569.11;;;-2.50;100.00
25869;BME280;13688;53.154;18.136;2023-11-21T19:49:20;101582.26;;;-2.51;100.00
25869;BME280;13688;53.154;18.136;2023-11-21T19:54:44;101586.66;;;-2.52;100.00
25869;BME280;13688;53.154;18.136;2023-11-21T20:00:07;101595.45;;;-2.53;100.00
25869;BME280;13688;53.154;18.136;2023-11-21T20:05:30;101600.75;;;-2.56;100.00
25869;BME280;13688;53.154;18.136;2023-11-21T20:10:54;101607.80;;;-2.58;100.00
25869;BME280;13688;53.154;18.136;2023-11-21T20:16:20;101616.61;;;-2.61;100.00
25869;BME280;13688;53.154;18.136;2023-11-21T20:21:43;101626.25;;;-2.63;100.00
25869;BME280;13688;53.154;18.136;2023-11-21T20:27:06;101632.42;;;-2.65;100.00
25869;BME280;13688;53.154;18.136;2023-11-21T20:32:29;101629.83;;;-2.68;100.00
25869;BME280;13688;53.154;18.136;2023-11-21T20:37:52;101643.84;;;-2.66;100.00
25869;BME280;13688;53.154;18.136;2023-11-21T20:43:14;101649.09;;;-2.65;100.00
25869;BME280;13688;53.154;18.136;2023-11-21T20:48:37;101666.69;;;-2.71;100.00
25869;BME280;13688;53.154;18.136;2023-11-21T20:54:01;101673.73;;;-2.73;100.00
25869;BME280;13688;53.154;18.136;2023-11-21T20:59:24;101670.24;;;-2.75;100.00
25869;BME280;13688;53.154;18.136;2023-11-21T21:04:58;101671.06;;;-2.67;100.00
25869;BME280;13688;53.154;18.136;2023-11-21T21:10:22;101670.28;;;-2.78;100.00
25869;BME280;13688;53.154;18.136;2023-11-21T21:15:45;101684.34;;;-2.84;100.00
25869;BME280;13688;53.154;18.136;2023-11-21T21:21:07;101699.35;;;-2.97;100.00
25869;BME280;13688;53.154;18.136;2023-11-21T21:26:30;101706.41;;;-3.05;100.00
25869;BME280;13688;53.154;18.136;2023-11-21T21:31:52;101716.97;;;-3.12;100.00
25869;BME280;13688;53.154;18.136;2023-11-21T21:37:15;101724.89;;;-3.15;100.00
25869;BME280;13688;53.154;18.136;2023-11-21T21:42:40;101737.17;;;-3.21;100.00
25869;BME280;13688;53.154;18.136;2023-11-21T21:48:03;101729.31;;;-3.24;100.00
25869;BME280;13688;53.154;18.136;2023-11-21T21:53:25;101745.12;;;-3.31;100.00
25869;BME280;13688;53.154;18.136;2023-11-21T21:58:48;101754.78;;;-3.38;100.00
25869;BME280;13688;53.154;18.136;2023-11-21T22:04:11;101764.45;;;-3.41;100.00
25869;BME280;13688;53.154;18.136;2023-11-21T22:09:34;101766.23;;;-3.47;100.00
25869;BME280;13688;53.154;18.136;2023-11-21T22:14:57;101771.48;;;-3.50;100.00
25869;BME280;13688;53.154;18.136;2023-11-21T22:20:19;101771.52;;;-3.56;100.00
25869;BME280;13688;53.154;18.136;2023-11-21T22:25:43;101776.78;;;-3.62;100.00
25869;BME280;13688;53.154;18.136;2023-11-21T22:31:05;101777.67;;;-3.70;100.00
25869;BME280;13688;53.154;18.136;2023-11-21T22:36:27;101783.84;;;-3.76;100.00
25869;BME280;13688;53.154;18.136;2023-11-21T22:41:50;101803.09;;;-3.79;100.00
25869;BME280;13688;53.154;18.136;2023-11-21T22:47:13;101822.39;;;-3.86;100.00
25869;BME280;13688;53.154;18.136;2023-11-21T22:52:39;101823.24;;;-3.88;100.00
25869;BME280;13688;53.154;18.136;2023-11-21T22:58:02;101825.00;;;-3.89;100.00
25869;BME280;13688;53.154;18.136;2023-11-21T23:03:24;101823.25;;;-3.90;100.00
25869;BME280;13688;53.154;18.136;2023-11-21T23:08:50;101827.65;;;-4.04;100.00
25869;BME280;13688;53.154;18.136;2023-11-21T23:14:14;101830.28;;;-4.04;100.00
25869;BME280;13688;53.154;18.136;2023-11-21T23:19:36;101835.52;;;-4.10;100.00
25869;BME280;13688;53.154;18.136;2023-11-21T23:25:00;101839.03;;;-4.14;100.00
25869;BME280;13688;53.154;18.136;2023-11-21T23:30:24;101848.64;;;-4.21;100.00
25869;BME280;13688;53.154;18.136;2023-11-21T23:35:47;101848.62;;;-4.25;100.00
25869;BME280;13688;53.154;18.136;2023-11-21T23:41:09;101852.14;;;-4.31;100.00
25869;BME280;13688;53.154;18.136;2023-11-21T23:46:33;101869.61;;;-4.36;100.00
25869;BME280;13688;53.154;18.136;2023-11-21T23:51:55;101881.88;;;-4.40;100.00
25869;BME280;13688;53.154;18.136;2023-11-21T23:57:18;101885.38;;;-4.41;100.00
